Portada
METAR-TAF:

METAR-TAF

Aeroports :

Honiara, Guadalcanal, Illes Salomó

latitud: 09-25S, longitud: 160-03E, altitud: 8 m

Observació

L'informe es va fer fa 37 minuts, a les 18:00 UTC
Vent 3 kt del Sud-Est
Temperatura 24°C
Humitat 94%
Pressió 1012 hPa
Visibilitat 10 km o més
Escasses núvols a una alçada de 1400 ft
Núvols disperses a una alçada de 10000 ft

METAR: AGGH 251800Z 14003KT 9999 FEW014 SCT100 24/23 Q1012

Hora: 05:37 (18:37 UTC)

Pronòstic

L'informe es va fer fa 1 hora i 22 minuts, a les 17:15 UTC
Pronòstic vàlid del 25 a les 18 UTC al 26 a les 18 UTC
Vent 10 kt del Nord/Nord-Est
Visibilitat: 1012 m
Núvols disperses a una alçada de 1800 ft
Núvols disperses a una alçada de 3000 ft

TAF: AGGH 251715Z 2518/2618 02010KT 9999 SCT018 SCT030 T 25 26 30 31 Q 1012 1014 1014 1012

Observacions i pronòstics meteorològics de més de 4000 aeroports (METAR i TAF).

Les estacions disponibles són els punts grocs i vermells al mapa.

Posi el ratolí al punt desitjat per veure el nom de l'estació.

Feu clic per veure les observacions i els pronòstics meteorològics.

Per canviar el mapa: feu clic els botons verds amb una creu de color negre per apropar; al botó verd amb un guió per allunyar la imatge; o en les fletxes verdes per a mapes adjacents.


METAR-TAF: